TAF Text Data
IDs:
Format:
Raw Decoded Include METAR

Data at: 1232 UTC 19 Feb 2020

KIAD 191152Z 33010KT 10SM BKN085 06/M03 A3026 RMK AO2 SLP248 60002 70002 T00611028 10106 20061 51037

KIAD 191120Z 1912/2018 33010G17KT P6SM BKN140
  FM191400 32011G18KT P6SM SCT250
  FM192100 32011KT P6SM FEW250
  FM200800 35005KT P6SM BKN200